Weather at Brisbane International Airport

Public forecast

Using degrees Celsius for public forecast. Weather courtesy of forecast.io.

Current aviation weather report (METAR) for Brisbane International Airport

Retrieved 2021/12/05 01:00 UTC (18 minutes ago):

YBBN 050100Z 14011KT 9999 FEW028 BKN032 25/19 Q1014

Aviation forecast (TAF) for Brisbane International Airport

Retrieved 2021-12-05 00:00 UTC (1 hour ago):

TAF YBBN 042312Z 0500/0606 12012KT 9999 -SHRA SCT025 BKN050 FM051000 17008KT 9999 -SHRA SCT020 BKN035 FM052300 12012KT 9999 -SHRA SCT025 SCT040 INTER 0500/0512 3000 SHRA BKN012